createdAt,value
2018-08-04T00:00:29.621Z,2.07
2018-08-04T00:02:58.818Z,1.93
2018-08-04T00:05:29.116Z,1.83
2018-08-04T00:07:58.415Z,2.03
2018-08-04T00:10:27.770Z,1.60
2018-08-04T00:12:58.274Z,2.00
2018-08-04T00:15:27.621Z,1.67
2018-08-04T00:17:56.945Z,2.33
2018-08-04T00:20:26.428Z,2.10
2018-08-04T00:22:55.768Z,1.67
2018-08-04T00:25:25.036Z,2.00
2018-08-04T00:27:54.598Z,2.33
2018-08-04T00:30:24.068Z,2.13
2018-08-04T00:32:53.471Z,3.07
2018-08-04T00:35:24.214Z,2.20
2018-08-04T00:37:53.463Z,2.03
2018-08-04T00:40:23.042Z,1.77
2018-08-04T00:42:53.185Z,2.00
2018-08-04T00:45:22.592Z,1.73
2018-08-04T00:47:52.201Z,2.20
2018-08-04T00:50:22.547Z,1.93
2018-08-04T00:52:52.032Z,2.40
2018-08-04T00:55:21.488Z,2.00
2018-08-04T00:57:51.019Z,2.97
2018-08-04T01:00:20.478Z,2.40
2018-08-04T01:02:49.928Z,2.00
2018-08-04T01:05:19.588Z,2.53
2018-08-04T01:07:48.917Z,2.33
2018-08-04T01:10:18.279Z,2.20
2018-08-04T01:12:47.636Z,2.30
2018-08-04T01:15:17.369Z,2.20
2018-08-04T01:17:47.420Z,1.93
2018-08-04T01:20:17.029Z,3.90
2018-08-04T01:22:46.430Z,3.80
2018-08-04T01:25:15.761Z,13.47
2018-08-04T01:27:45.235Z,2.93
2018-08-04T01:30:14.486Z,3.30
2018-08-04T01:32:43.769Z,2.13
2018-08-04T01:35:12.978Z,2.60
2018-08-04T01:37:42.208Z,2.57
2018-08-04T01:40:11.990Z,2.83
2018-08-04T01:42:41.224Z,3.17
2018-08-04T01:45:10.520Z,3.20
2018-08-04T01:47:39.840Z,3.30
2018-08-04T01:50:09.105Z,3.10
2018-08-04T01:52:38.320Z,3.17
2018-08-04T01:55:07.976Z,2.90
2018-08-04T01:57:37.148Z,3.13
2018-08-04T02:00:08.115Z,3.00
2018-08-04T02:02:37.521Z,3.30
2018-08-04T02:05:06.970Z,2.87
2018-08-04T02:07:36.168Z,3.00
2018-08-04T02:10:05.458Z,3.50
2018-08-04T02:12:34.689Z,3.23
2018-08-04T02:15:03.887Z,3.40
2018-08-04T02:17:33.808Z,3.87
2018-08-04T02:20:03.050Z,4.00
2018-08-04T02:22:32.310Z,3.27
2018-08-04T02:25:01.499Z,3.30
2018-08-04T02:27:30.830Z,3.50
2018-08-04T02:30:00.092Z,3.70
2018-08-04T02:32:29.372Z,3.17
2018-08-04T02:34:58.654Z,4.40
2018-08-04T02:37:27.856Z,4.53
2018-08-04T02:39:57.334Z,3.73
2018-08-04T02:42:26.603Z,3.93
2018-08-04T02:44:55.849Z,3.87
2018-08-04T02:47:25.339Z,2.97
2018-08-04T02:49:54.670Z,3.53
2018-08-04T02:52:24.181Z,3.83
2018-08-04T02:54:54.490Z,3.67
2018-08-04T02:57:23.799Z,4.00
2018-08-04T02:59:53.097Z,3.90
2018-08-04T03:02:23.525Z,4.03
2018-08-04T03:04:52.930Z,4.37
2018-08-04T03:07:22.700Z,3.73
2018-08-04T03:09:52.339Z,4.17
2018-08-04T03:12:21.750Z,3.53
2018-08-04T03:14:51.080Z,3.47
2018-08-04T03:17:22.417Z,4.23
2018-08-04T03:19:52.036Z,4.33
2018-08-04T03:22:21.470Z,5.17
2018-08-04T03:24:51.320Z,4.77
2018-08-04T03:27:20.799Z,5.03
2018-08-04T03:29:50.172Z,4.60
2018-08-04T03:32:19.729Z,4.47
2018-08-04T03:34:49.075Z,5.40
2018-08-04T03:37:18.625Z,4.90
2018-08-04T03:39:49.478Z,4.20
2018-08-04T03:42:18.900Z,4.33
2018-08-04T03:44:48.329Z,4.30
2018-08-04T03:47:17.745Z,4.10
2018-08-04T03:49:47.227Z,3.97
2018-08-04T03:52:16.705Z,4.33
2018-08-04T03:54:46.217Z,4.93
2018-08-04T03:57:15.637Z,4.13
2018-08-04T03:59:44.909Z,3.47
2018-08-04T04:02:14.342Z,3.23
2018-08-04T04:04:43.605Z,3.20
2018-08-04T04:07:12.922Z,3.57
2018-08-04T04:09:42.161Z,2.97
2018-08-04T04:12:11.392Z,4.13
2018-08-04T04:14:40.909Z,3.47
2018-08-04T04:17:10.157Z,3.67
2018-08-04T04:19:39.446Z,3.00
2018-08-04T04:22:08.923Z,4.03
2018-08-04T04:24:38.409Z,3.87
2018-08-04T04:27:08.001Z,4.10
2018-08-04T04:29:37.300Z,3.83
2018-08-04T04:32:07.004Z,4.27
2018-08-04T04:34:36.296Z,3.47
2018-08-04T04:37:05.550Z,3.70
2018-08-04T04:39:34.876Z,3.40
2018-08-04T04:42:04.198Z,4.27
2018-08-04T04:44:33.817Z,3.40
2018-08-04T04:47:03.202Z,4.00
2018-08-04T04:49:32.398Z,3.63
2018-08-04T04:52:01.745Z,3.77
2018-08-04T04:54:31.085Z,3.70
2018-08-04T04:57:00.276Z,3.87
2018-08-04T04:59:29.598Z,5.13
2018-08-04T05:01:59.186Z,3.33
2018-08-04T05:04:28.529Z,4.10
2018-08-04T05:06:57.710Z,4.50
2018-08-04T05:09:27.552Z,4.20
2018-08-04T05:11:56.858Z,4.57
2018-08-04T05:14:26.106Z,4.60
2018-08-04T05:16:55.454Z,5.60
2018-08-04T05:19:24.803Z,5.10
2018-08-04T05:21:54.126Z,4.53
2018-08-04T05:24:23.813Z,4.70
2018-08-04T05:26:53.269Z,4.67
2018-08-04T05:29:22.616Z,4.80
2018-08-04T05:31:52.051Z,4.90
2018-08-04T05:34:21.388Z,4.87
2018-08-04T05:36:50.789Z,5.67
2018-08-04T05:39:20.253Z,6.80
2018-08-04T05:41:49.605Z,5.77
2018-08-04T05:44:19.009Z,5.73
2018-08-04T05:46:48.924Z,7.20
2018-08-04T05:49:18.236Z,7.70
2018-08-04T05:51:47.844Z,7.30
2018-08-04T05:54:17.425Z,7.70
2018-08-04T05:56:46.725Z,7.10
2018-08-04T05:59:16.074Z,8.40
2018-08-04T06:01:46.243Z,7.03
2018-08-04T06:04:15.569Z,6.40
2018-08-04T06:06:44.782Z,8.47
2018-08-04T06:09:14.018Z,8.30
2018-08-04T06:11:43.274Z,8.47
2018-08-04T06:14:13.094Z,7.47
2018-08-04T06:16:42.373Z,6.83
2018-08-04T06:19:11.649Z,7.40
2018-08-04T06:21:40.826Z,6.50
2018-08-04T06:24:10.104Z,6.53
2018-08-04T06:26:39.435Z,6.77
2018-08-04T06:29:08.715Z,6.10
2018-08-04T06:31:37.948Z,5.70
2018-08-04T06:34:07.324Z,5.73
2018-08-04T06:36:36.677Z,5.90
2018-08-04T06:39:07.560Z,4.63
2018-08-04T06:41:37.237Z,5.00
2018-08-04T06:44:06.525Z,4.20
2018-08-04T06:46:35.784Z,5.73
2018-08-04T06:49:05.592Z,4.10
2018-08-04T06:51:34.822Z,4.13
2018-08-04T06:54:04.506Z,3.87
2018-08-04T06:56:33.777Z,4.77
2018-08-04T06:59:03.085Z,4.40
2018-08-04T07:01:32.660Z,4.00
2018-08-04T07:04:01.849Z,3.77
2018-08-04T07:06:31.156Z,4.40
2018-08-04T07:09:01.234Z,4.47
2018-08-04T07:11:30.776Z,3.33
2018-08-04T07:14:00.097Z,3.00
2018-08-04T07:16:29.443Z,3.60
2018-08-04T07:18:59.373Z,2.83
2018-08-04T07:21:28.658Z,2.80
2018-08-04T07:23:58.515Z,3.60
2018-08-04T07:26:27.789Z,2.63
2018-08-04T07:28:57.286Z,2.87
2018-08-04T07:31:27.365Z,3.00
2018-08-04T07:33:56.798Z,4.20
2018-08-04T07:36:27.076Z,3.93
2018-08-04T07:38:57.491Z,3.90
2018-08-04T07:41:26.804Z,3.70
2018-08-04T07:43:56.633Z,3.53
2018-08-04T07:46:26.282Z,3.10
2018-08-04T07:48:55.677Z,3.57
2018-08-04T07:51:25.114Z,2.97
2018-08-04T07:53:54.739Z,3.17
2018-08-04T07:56:24.228Z,4.00
2018-08-04T07:58:54.616Z,3.20
2018-08-04T08:01:24.067Z,2.40
2018-08-04T08:03:53.597Z,1.80
2018-08-04T08:06:22.987Z,2.90
2018-08-04T08:08:52.370Z,2.50
2018-08-04T08:11:22.339Z,2.47
2018-08-04T08:13:51.928Z,2.30
2018-08-04T08:16:21.918Z,2.03
2018-08-04T08:18:51.259Z,1.97
2018-08-04T08:21:20.648Z,2.40
2018-08-04T08:23:50.201Z,1.93
2018-08-04T08:26:19.771Z,2.40
2018-08-04T08:28:50.605Z,2.37
2018-08-04T08:31:20.241Z,2.33
2018-08-04T08:33:50.773Z,2.03
2018-08-04T08:36:20.501Z,2.53
2018-08-04T08:38:50.857Z,2.20
2018-08-04T08:41:20.391Z,2.30
2018-08-04T08:43:50.074Z,2.30
2018-08-04T08:46:19.522Z,2.77
2018-08-04T08:48:49.005Z,2.37
2018-08-04T08:51:18.413Z,2.60
2018-08-04T08:53:49.097Z,2.23
2018-08-04T08:56:18.639Z,2.10
2018-08-04T08:58:48.084Z,2.40
2018-08-04T09:01:18.968Z,2.70
2018-08-04T09:03:48.377Z,2.20
2018-08-04T09:06:19.556Z,2.30
2018-08-04T09:08:49.295Z,2.10
2018-08-04T09:11:19.113Z,3.90
2018-08-04T09:13:48.739Z,2.27
2018-08-04T09:16:19.085Z,1.60
2018-08-04T09:18:49.205Z,1.90
2018-08-04T09:21:20.107Z,2.00
2018-08-04T09:23:50.674Z,2.70
2018-08-04T09:26:23.622Z,2.63
2018-08-04T09:28:58.815Z,1.60
2018-08-04T09:31:35.744Z,2.23
2018-08-04T09:34:05.370Z,1.80
2018-08-04T09:36:35.173Z,1.80
2018-08-04T09:39:09.520Z,1.90
2018-08-04T09:41:39.849Z,2.50
2018-08-04T09:44:09.859Z,2.20
2018-08-04T09:46:41.283Z,2.13
2018-08-04T09:49:16.631Z,1.70
2018-08-04T09:51:46.392Z,1.73
2018-08-04T09:54:15.707Z,1.87
2018-08-04T09:56:44.917Z,2.03
2018-08-04T09:59:14.249Z,4.53
2018-08-04T10:01:43.438Z,1.80
2018-08-04T10:04:12.782Z,1.70
2018-08-04T10:06:42.137Z,2.10
2018-08-04T10:09:15.533Z,2.60
2018-08-04T10:11:45.594Z,2.20
2018-08-04T10:14:15.129Z,1.90
2018-08-04T10:16:44.854Z,2.27
2018-08-04T10:19:15.099Z,1.80
2018-08-04T10:21:44.507Z,2.10
2018-08-04T10:24:14.728Z,2.10
2018-08-04T10:26:44.230Z,2.27
2018-08-04T10:29:13.613Z,2.10
2018-08-04T10:31:43.513Z,2.27
2018-08-04T10:34:14.134Z,2.03
2018-08-04T10:36:43.940Z,2.10
2018-08-04T10:39:13.825Z,1.67
2018-08-04T10:41:43.359Z,2.60
2018-08-04T10:44:12.598Z,2.00
2018-08-04T10:46:41.877Z,2.70
2018-08-04T10:49:11.789Z,1.87
2018-08-04T10:51:41.068Z,2.40
2018-08-04T10:54:10.345Z,2.10
2018-08-04T10:56:39.639Z,2.20
2018-08-04T10:59:08.929Z,2.37
2018-08-04T11:01:39.666Z,2.07
2018-08-04T11:04:09.764Z,1.90
2018-08-04T11:06:39.361Z,2.40
2018-08-04T11:09:09.884Z,1.90
2018-08-04T11:11:40.308Z,2.50
2018-08-04T11:14:09.706Z,2.00
2018-08-04T11:16:39.298Z,2.03
2018-08-04T11:19:08.739Z,2.07
2018-08-04T11:21:38.099Z,1.80
2018-08-04T11:24:07.451Z,2.10
2018-08-04T11:26:36.649Z,2.70
2018-08-04T11:29:06.103Z,2.07
2018-08-04T11:31:35.410Z,3.33
2018-08-04T11:34:04.749Z,3.37
2018-08-04T11:36:34.516Z,3.30
2018-08-04T11:39:06.141Z,2.33
2018-08-04T11:41:35.581Z,1.80
2018-08-04T11:44:05.231Z,1.83
2018-08-04T11:46:35.312Z,1.93
2018-08-04T11:49:04.592Z,2.03
2018-08-04T11:51:34.036Z,2.33
2018-08-04T11:54:04.288Z,2.23
2018-08-04T11:56:33.537Z,2.17
2018-08-04T11:59:02.757Z,5.80
2018-08-04T12:01:32.528Z,3.33
2018-08-04T12:04:02.052Z,2.60
2018-08-04T12:06:31.268Z,2.47
2018-08-04T12:09:00.875Z,2.90
2018-08-04T12:11:30.209Z,2.70
2018-08-04T12:13:59.492Z,2.40
2018-08-04T12:16:29.421Z,2.23
2018-08-04T12:18:58.896Z,1.87
2018-08-04T12:21:30.908Z,2.67
2018-08-04T12:24:03.026Z,2.50
2018-08-04T12:26:32.270Z,2.23
2018-08-04T12:29:01.841Z,2.43
2018-08-04T12:31:34.119Z,2.20
2018-08-04T12:34:03.445Z,2.60
2018-08-04T12:36:34.334Z,2.30
2018-08-04T12:39:03.941Z,2.77
2018-08-04T12:41:33.176Z,2.43
2018-08-04T12:44:05.270Z,2.63
2018-08-04T12:46:35.437Z,3.37
2018-08-04T12:49:04.844Z,2.10
2018-08-04T12:51:34.977Z,2.43
2018-08-04T12:54:04.407Z,1.93
2018-08-04T12:56:35.153Z,2.67
2018-08-04T12:59:05.206Z,2.63
2018-08-04T13:01:34.669Z,2.67
2018-08-04T13:04:04.140Z,2.50
2018-08-04T13:06:34.174Z,2.63
2018-08-04T13:09:03.501Z,2.90
2018-08-04T13:11:34.165Z,2.43
2018-08-04T13:14:03.562Z,2.87
2018-08-04T13:16:32.786Z,2.20
2018-08-04T13:19:02.105Z,2.50
2018-08-04T13:21:31.832Z,2.30
2018-08-04T13:24:01.413Z,2.27
2018-08-04T13:26:31.365Z,2.87
2018-08-04T13:29:00.869Z,2.53
2018-08-04T13:31:30.052Z,2.33
2018-08-04T13:34:01.101Z,2.70
2018-08-04T13:36:30.493Z,2.93
2018-08-04T13:38:59.718Z,2.37
2018-08-04T13:41:29.043Z,2.00
2018-08-04T13:43:58.633Z,2.03
2018-08-04T13:46:28.457Z,1.80
2018-08-04T13:48:57.761Z,2.10
2018-08-04T13:51:28.685Z,2.00
2018-08-04T13:53:58.229Z,2.60
2018-08-04T13:56:28.169Z,2.27
2018-08-04T13:58:57.670Z,2.10
2018-08-04T14:01:27.209Z,3.87
2018-08-04T14:03:57.001Z,2.67
2018-08-04T14:06:26.270Z,2.33
2018-08-04T14:08:55.567Z,2.17
2018-08-04T14:11:24.846Z,2.57
2018-08-04T14:13:54.939Z,2.20
2018-08-04T14:16:24.615Z,2.10
2018-08-04T14:18:54.009Z,2.20
2018-08-04T14:21:23.660Z,1.97
2018-08-04T14:23:53.605Z,2.73
2018-08-04T14:26:23.442Z,2.40
2018-08-04T14:28:53.489Z,2.27
2018-08-04T14:31:23.378Z,1.70
2018-08-04T14:33:52.963Z,1.30
2018-08-04T14:36:22.332Z,1.70
2018-08-04T14:38:51.903Z,1.90
2018-08-04T14:41:21.519Z,1.40
2018-08-04T14:43:52.101Z,1.50
2018-08-04T14:46:26.494Z,1.30
2018-08-04T14:48:56.586Z,1.30
2018-08-04T14:51:28.150Z,1.60
2018-08-04T14:53:57.578Z,1.87
2018-08-04T14:56:27.392Z,1.07
2018-08-04T14:58:56.730Z,1.50
2018-08-04T15:01:26.143Z,1.70
2018-08-04T15:05:24.676Z,1.20
2018-08-04T15:07:54.516Z,1.20
2018-08-04T15:10:23.946Z,1.50
2018-08-04T15:12:53.506Z,1.20
2018-08-04T15:15:23.231Z,2.00
2018-08-04T15:17:52.720Z,1.70
2018-08-04T15:20:22.342Z,1.10
2018-08-04T15:22:52.038Z,1.30
2018-08-04T15:25:21.794Z,1.20
2018-08-04T15:27:51.393Z,1.93
2018-08-04T15:30:21.009Z,1.47
2018-08-04T15:32:50.557Z,1.50
2018-08-04T15:35:19.992Z,1.63
2018-08-04T15:37:50.899Z,1.77
2018-08-04T15:40:20.391Z,1.80
2018-08-04T15:42:50.002Z,1.50
2018-08-04T15:45:21.556Z,1.97
2018-08-04T15:47:51.316Z,1.67
2018-08-04T15:50:20.865Z,1.70
2018-08-04T15:52:50.561Z,2.30
2018-08-04T15:55:20.263Z,1.77
2018-08-04T15:57:49.949Z,1.70
2018-08-04T16:00:19.727Z,1.37
2018-08-04T16:02:49.863Z,1.50
2018-08-04T16:05:19.784Z,1.40
2018-08-04T16:07:49.290Z,1.73
2018-08-04T16:10:18.901Z,1.40
2018-08-04T16:12:48.687Z,1.43
2018-08-04T16:15:18.659Z,1.63
2018-08-04T16:17:48.275Z,1.57
2018-08-04T16:20:19.414Z,1.30
2018-08-04T16:22:49.174Z,1.70
2018-08-04T16:25:19.899Z,1.60
2018-08-04T16:27:49.815Z,1.67
2018-08-04T16:30:20.215Z,1.70
2018-08-04T16:32:49.808Z,1.50
2018-08-04T16:35:19.727Z,1.50
2018-08-04T16:37:49.678Z,1.40
2018-08-04T16:40:19.317Z,1.30
2018-08-04T16:42:50.817Z,1.30
2018-08-04T16:45:21.536Z,1.50
2018-08-04T16:47:51.856Z,1.07
2018-08-04T16:50:21.579Z,1.33
2018-08-04T16:52:51.536Z,1.63
2018-08-04T16:55:22.151Z,1.73
2018-08-04T16:57:51.815Z,1.67
2018-08-04T17:00:21.496Z,2.70
2018-08-04T17:02:51.302Z,1.53
2018-08-04T17:05:20.821Z,1.50
2018-08-04T17:07:50.751Z,1.43
2018-08-04T17:10:20.415Z,1.53
2018-08-04T17:12:50.503Z,1.50
2018-08-04T17:15:20.714Z,1.67
2018-08-04T17:17:50.680Z,1.70
2018-08-04T17:20:21.639Z,1.70
2018-08-04T17:22:52.149Z,1.83
2018-08-04T17:25:21.752Z,1.60
2018-08-04T17:27:51.204Z,2.03
2018-08-04T17:30:21.065Z,1.80
2018-08-04T17:32:52.061Z,1.90
2018-08-04T17:35:21.957Z,1.53
2018-08-04T17:37:52.165Z,1.60
2018-08-04T17:40:21.684Z,1.60
2018-08-04T17:42:51.318Z,1.83
2018-08-04T17:45:20.786Z,1.67
2018-08-04T17:47:50.280Z,1.57
2018-08-04T17:50:20.016Z,1.37
2018-08-04T17:52:49.641Z,1.17
2018-08-04T17:55:19.625Z,1.20
2018-08-04T17:57:49.108Z,1.50
2018-08-04T18:00:18.543Z,1.20
2018-08-04T18:02:48.207Z,1.40
2018-08-04T18:05:17.710Z,1.47
2018-08-04T18:07:47.183Z,1.40
2018-08-04T18:10:16.722Z,1.33
2018-08-04T18:12:46.301Z,1.70
2018-08-04T18:15:16.065Z,1.30
2018-08-04T18:17:46.391Z,1.30
2018-08-04T18:20:16.524Z,1.13
2018-08-04T18:22:45.920Z,1.47
2018-08-04T18:25:16.505Z,1.60
2018-08-04T18:27:46.214Z,1.50
2018-08-04T18:30:15.734Z,1.20
2018-08-04T18:32:45.070Z,1.20
2018-08-04T18:35:14.620Z,1.00
2018-08-04T18:37:44.479Z,1.07
2018-08-04T18:40:13.786Z,1.13
2018-08-04T18:42:43.116Z,1.10
2018-08-04T18:45:12.350Z,1.00
2018-08-04T18:47:42.188Z,1.60
2018-08-04T18:50:11.538Z,2.87
2018-08-04T18:52:40.921Z,1.33
2018-08-04T18:55:10.560Z,1.80
2018-08-04T18:57:39.823Z,1.27
2018-08-04T19:00:10.347Z,0.90
2018-08-04T19:02:40.949Z,1.37
2018-08-04T19:05:11.637Z,1.00
2018-08-04T19:07:41.028Z,1.10
2018-08-04T19:10:10.494Z,1.50
2018-08-04T19:12:39.845Z,1.63
2018-08-04T19:15:09.763Z,1.13
2018-08-04T19:17:39.092Z,1.10
2018-08-04T19:20:08.690Z,1.00
2018-08-04T19:22:38.204Z,1.80
2018-08-04T19:25:08.015Z,1.40
2018-08-04T19:27:37.369Z,1.63
2018-08-04T19:30:07.594Z,1.17
2018-08-04T19:32:36.818Z,1.20
2018-08-04T19:35:06.210Z,1.47
2018-08-04T19:37:35.593Z,1.10
2018-08-04T19:40:05.666Z,1.33
2018-08-04T19:42:35.000Z,1.50
2018-08-04T19:45:04.657Z,1.53
2018-08-04T19:47:33.989Z,1.67
2018-08-04T19:50:03.358Z,1.40
2018-08-04T19:52:32.858Z,1.20
2018-08-04T19:55:02.188Z,1.83
2018-08-04T19:57:31.482Z,1.53
2018-08-04T20:00:02.691Z,1.90
2018-08-04T20:02:31.889Z,1.50
2018-08-04T20:05:01.123Z,1.90
2018-08-04T20:07:30.375Z,1.47
2018-08-04T20:09:59.667Z,1.80
2018-08-04T20:12:28.889Z,1.50
2018-08-04T20:14:58.166Z,2.30
2018-08-04T20:17:28.007Z,1.80
2018-08-04T20:19:57.729Z,1.47
2018-08-04T20:22:27.418Z,1.53
2018-08-04T20:24:56.958Z,1.93
2018-08-04T20:27:27.038Z,1.60
2018-08-04T20:29:57.376Z,1.73
2018-08-04T20:32:26.897Z,1.40
2018-08-04T20:34:56.418Z,1.73
2018-08-04T20:37:26.306Z,1.87
2018-08-04T20:39:55.742Z,1.50
2018-08-04T20:42:24.623Z,1.70
2018-08-04T20:44:54.120Z,1.40
2018-08-04T20:47:23.516Z,2.00
2018-08-04T20:49:53.308Z,1.90
2018-08-04T20:52:24.477Z,1.77
2018-08-04T20:54:55.552Z,2.00
2018-08-04T20:57:24.985Z,2.37
2018-08-04T20:59:57.994Z,2.50
2018-08-04T21:02:27.426Z,2.53
2018-08-04T21:04:57.456Z,2.40
2018-08-04T21:07:27.553Z,2.90
2018-08-04T21:09:56.935Z,3.30
2018-08-04T21:12:26.388Z,3.30
2018-08-04T21:14:55.861Z,3.20
2018-08-04T21:17:25.307Z,2.93
2018-08-04T21:19:55.575Z,2.63
2018-08-04T21:22:26.217Z,3.10
2018-08-04T21:24:55.974Z,3.23
2018-08-04T21:27:25.852Z,3.23
2018-08-04T21:29:55.511Z,3.47
2018-08-04T21:32:25.179Z,3.97
2018-08-04T21:34:56.974Z,3.67
2018-08-04T21:37:27.103Z,3.90
2018-08-04T21:39:56.583Z,3.60
2018-08-04T21:42:26.552Z,3.43
2018-08-04T21:44:56.190Z,3.60
2018-08-04T21:47:25.846Z,3.60
2018-08-04T21:49:57.671Z,3.67
2018-08-04T21:52:28.373Z,3.80
2018-08-04T21:54:57.655Z,3.70
2018-08-04T21:57:28.630Z,4.20
2018-08-04T21:59:58.061Z,3.97
2018-08-04T22:02:27.367Z,4.00
2018-08-04T22:04:58.382Z,3.80
2018-08-04T22:07:40.922Z,3.90
2018-08-04T22:10:12.525Z,4.43
2018-08-04T22:12:42.848Z,4.70
2018-08-04T22:15:13.756Z,3.97
2018-08-04T22:17:43.018Z,4.50
2018-08-04T22:20:15.184Z,4.13
2018-08-04T22:22:48.461Z,3.97
2018-08-04T22:25:22.256Z,4.30
2018-08-04T22:27:53.066Z,5.27
2018-08-04T22:30:24.130Z,4.30
2018-08-04T22:32:54.374Z,4.37
2018-08-04T22:35:26.991Z,4.77
2018-08-04T22:37:56.460Z,4.00
2018-08-04T22:40:25.989Z,4.03
2018-08-04T22:42:55.428Z,3.83
2018-08-04T22:45:30.232Z,4.60
2018-08-04T22:48:00.252Z,3.17
2018-08-04T22:50:29.665Z,3.53
2018-08-04T22:52:59.019Z,3.53
2018-08-04T22:55:28.618Z,4.77
2018-08-04T22:57:59.662Z,2.87
2018-08-04T23:00:29.468Z,2.90
2018-08-04T23:02:59.764Z,2.97
2018-08-04T23:05:29.466Z,3.30
2018-08-04T23:07:58.889Z,2.87
2018-08-04T23:10:28.259Z,2.73
2018-08-04T23:12:58.183Z,3.67
2018-08-04T23:15:28.381Z,2.73
2018-08-04T23:17:57.766Z,3.30
2018-08-04T23:20:27.405Z,3.83
2018-08-04T23:22:58.383Z,3.27
2018-08-04T23:25:27.725Z,3.73
2018-08-04T23:27:57.411Z,3.07
2018-08-04T23:30:27.077Z,2.40
2018-08-04T23:32:56.566Z,3.40
2018-08-04T23:35:27.138Z,3.30
2018-08-04T23:37:58.642Z,2.53
2018-08-04T23:40:29.516Z,2.97
2018-08-04T23:43:00.385Z,1.83
2018-08-04T23:45:29.746Z,2.63
2018-08-04T23:47:58.990Z,2.90
2018-08-04T23:50:28.877Z,2.97
2018-08-04T23:52:58.098Z,2.40
2018-08-04T23:55:27.953Z,3.27
2018-08-04T23:57:57.240Z,2.73
